Time;durP1;ratioP1;P1;durP2;ratioP2;P2;SDS_P1;SDS_P2;PMS_P1;PMS_P2;Temp;Humidity;BMP_temperature;BMP_pressure;BME280_temperature;BME280_humidity;BME280_pressure;Samples;Min_cycle;Max_cycle;Signal;HPM_P1;HPM_P2
2022/01/01 00:00:46;;;;;;;142.35;73.05;;;;;;;;;;4972711;28;94114;-69
2022/01/01 00:03:13;;;;;;;124.55;73.40;;;;;;;;;;4972394;28;94245;-69
2022/01/01 00:05:39;;;;;;;126.95;77.63;;;;;;;;;;4972511;28;91951;-69
2022/01/01 00:08:07;;;;;;;127.35;73.65;;;;;;;;;;4972782;28;92789;-69
2022/01/01 00:10:35;;;;;;;141.75;83.35;;;;;;;;;;4971699;28;93147;-69
2022/01/01 00:13:14;;;;;;;135.05;81.28;;;;;;;;;;4995221;28;95901;-69
2022/01/01 00:15:40;;;;;;;150.23;86.35;;;;;;;;;;5011996;28;94248;-69
2022/01/01 00:18:06;;;;;;;163.60;93.32;;;;;;;;;;5011691;28;92459;-69
2022/01/01 00:20:33;;;;;;;168.05;91.45;;;;;;;;;;5011112;28;94059;-69
2022/01/01 00:22:59;;;;;;;155.07;89.57;;;;;;;;;;5003937;28;94673;-69
2022/01/01 00:25:26;;;;;;;155.98;88.93;;;;;;;;;;4991229;28;92803;-69
2022/01/01 00:27:53;;;;;;;145.27;90.05;;;;;;;;;;4991889;28;94224;-69
2022/01/01 00:30:19;;;;;;;148.38;83.57;;;;;;;;;;4990599;28;95146;-69
2022/01/01 00:32:46;;;;;;;139.13;81.72;;;;;;;;;;4991230;28;92874;-69
2022/01/01 00:35:12;;;;;;;143.57;81.65;;;;;;;;;;4994772;28;94028;-69
2022/01/01 00:37:38;;;;;;;137.25;77.22;;;;;;;;;;4990886;28;95141;-69
2022/01/01 00:40:05;;;;;;;131.38;74.82;;;;;;;;;;4991503;28;96589;-69
2022/01/01 00:42:31;;;;;;;128.43;74.10;;;;;;;;;;4991674;28;93453;-69
2022/01/01 00:44:58;;;;;;;145.20;80.50;;;;;;;;;;4991433;28;93030;-69
2022/01/01 00:47:24;;;;;;;110.50;62.58;;;;;;;;;;4991429;28;94035;-69
2022/01/01 00:49:51;;;;;;;113.57;64.20;;;;;;;;;;4991750;28;93646;-70
2022/01/01 00:52:17;;;;;;;117.03;64.13;;;;;;;;;;4987435;28;94096;-70
2022/01/01 00:54:43;;;;;;;117.80;64.28;;;;;;;;;;4993935;28;93995;-70
2022/01/01 00:57:10;;;;;;;120.68;66.72;;;;;;;;;;4986435;28;93816;-70
2022/01/01 00:59:36;;;;;;;128.57;72.75;;;;;;;;;;4979522;28;93958;-70
2022/01/01 01:02:02;;;;;;;148.23;85.82;;;;;;;;;;4981810;28;95688;-70
2022/01/01 01:04:29;;;;;;;126.95;72.57;;;;;;;;;;4974106;28;92521;-70
2022/01/01 01:06:55;;;;;;;124.78;73.47;;;;;;;;;;4985218;28;94185;-70
2022/01/01 01:09:22;;;;;;;126.70;69.45;;;;;;;;;;4976168;28;94387;-70
2022/01/01 01:11:51;;;;;;;126.63;70.32;;;;;;;;;;4975566;28;92488;-69
2022/01/01 01:14:20;;;;;;;115.07;67.15;;;;;;;;;;4971592;28;93195;-70
2022/01/01 01:16:48;;;;;;;128.88;71.13;;;;;;;;;;4982306;28;93369;-70
2022/01/01 01:19:14;;;;;;;135.65;74.57;;;;;;;;;;4995008;28;91687;-70
2022/01/01 01:21:41;;;;;;;122.20;67.40;;;;;;;;;;4983970;28;93251;-70
2022/01/01 01:24:07;;;;;;;109.97;65.30;;;;;;;;;;4991666;28;92891;-70
2022/01/01 01:26:34;;;;;;;120.95;66.43;;;;;;;;;;4987260;28;96823;-70
2022/01/01 01:29:02;;;;;;;126.57;69.43;;;;;;;;;;4974295;28;94156;-70
2022/01/01 01:31:30;;;;;;;122.38;67.82;;;;;;;;;;4981548;28;95353;-70
2022/01/01 01:33:56;;;;;;;126.20;70.20;;;;;;;;;;4994113;28;92997;-70
2022/01/01 01:36:23;;;;;;;121.45;69.80;;;;;;;;;;4994197;28;93209;-70
2022/01/01 01:38:49;;;;;;;198.80;113.88;;;;;;;;;;4992262;28;92942;-70
2022/01/01 01:41:15;;;;;;;123.20;76.68;;;;;;;;;;4991800;28;94246;-70
2022/01/01 01:43:42;;;;;;;127.90;73.00;;;;;;;;;;4991796;28;93281;-71
2022/01/01 01:46:12;;;;;;;116.65;65.07;;;;;;;;;;4994098;28;93363;-69
2022/01/01 01:48:39;;;;;;;119.93;71.55;;;;;;;;;;4989940;28;94063;-69
2022/01/01 01:51:05;;;;;;;133.88;70.47;;;;;;;;;;4977538;28;95424;-69
2022/01/01 01:53:32;;;;;;;120.40;64.45;;;;;;;;;;4992679;28;96845;-70
2022/01/01 01:56:00;;;;;;;114.63;59.60;;;;;;;;;;4994296;28;94626;-70
2022/01/01 01:58:29;;;;;;;107.70;50.72;;;;;;;;;;4992874;28;93140;-70
2022/01/01 02:01:20;;;;;;;94.88;48.13;;;;;;;;;;4994623;28;93936;-70
2022/01/01 02:03:48;;;;;;;94.88;45.28;;;;;;;;;;4999605;28;94192;-70
2022/01/01 02:06:15;;;;;;;94.07;45.70;;;;;;;;;;4991932;28;92648;-70
2022/01/01 02:08:42;;;;;;;87.22;44.70;;;;;;;;;;5009661;28;92436;-70
2022/01/01 02:11:08;;;;;;;89.63;46.45;;;;;;;;;;4992905;28;92722;-69
2022/01/01 02:13:47;;;;;;;92.72;39.80;;;;;;;;;;4990990;28;93238;-69
2022/01/01 02:18:51;;;;;;;78.32;38.20;;;;;;;;;;4979141;28;92432;-69
2022/01/01 02:21:18;;;;;;;82.07;36.30;;;;;;;;;;4993784;28;94187;-70
2022/01/01 02:23:46;;;;;;;74.53;34.28;;;;;;;;;;4991703;28;95575;-70
2022/01/01 02:26:15;;;;;;;73.20;33.33;;;;;;;;;;4973860;28;94402;-70
2022/01/01 02:28:42;;;;;;;73.63;32.47;;;;;;;;;;4974512;28;94222;-69
2022/01/01 02:31:09;;;;;;;87.85;34.67;;;;;;;;;;4973627;28;92447;-70
2022/01/01 02:33:36;;;;;;;74.97;30.75;;;;;;;;;;4973894;28;94041;-70
2022/01/01 02:36:04;;;;;;;77.00;30.63;;;;;;;;;;4984847;28;94085;-71
2022/01/01 02:38:34;;;;;;;68.80;29.67;;;;;;;;;;4978400;28;92606;-70
2022/01/01 02:41:00;;;;;;;84.43;31.83;;;;;;;;;;4971932;28;95477;-70
2022/01/01 02:43:26;;;;;;;71.03;29.02;;;;;;;;;;4976637;28;93729;-70
2022/01/01 02:45:54;;;;;;;64.20;35.45;;;;;;;;;;4977113;28;92465;-71
2022/01/01 02:48:20;;;;;;;79.00;34.53;;;;;;;;;;4992939;28;93122;-71
2022/01/01 02:50:50;;;;;;;75.90;32.08;;;;;;;;;;4993585;28;93076;-70
2022/01/01 02:53:16;;;;;;;67.97;28.88;;;;;;;;;;4992311;28;93377;-71
2022/01/01 02:55:43;;;;;;;70.95;28.85;;;;;;;;;;4992595;28;94152;-71
2022/01/01 02:58:10;;;;;;;53.25;26.25;;;;;;;;;;4981302;28;92347;-70
2022/01/01 03:00:37;;;;;;;75.15;25.20;;;;;;;;;;4973189;28;92760;-69
2022/01/01 03:03:04;;;;;;;51.63;24.02;;;;;;;;;;4973920;28;94213;-70
2022/01/01 03:05:31;;;;;;;50.83;23.88;;;;;;;;;;4991014;28;94948;-70
2022/01/01 03:07:58;;;;;;;54.03;22.20;;;;;;;;;;4998782;28;96411;-70
2022/01/01 03:10:24;;;;;;;63.67;22.63;;;;;;;;;;4993465;28;92398;-71
2022/01/01 03:12:51;;;;;;;49.53;21.67;;;;;;;;;;4993637;28;94047;-69
2022/01/01 03:15:17;;;;;;;54.70;21.85;;;;;;;;;;4992556;28;94068;-70
2022/01/01 03:17:43;;;;;;;52.03;20.80;;;;;;;;;;4980848;28;94522;-70
2022/01/01 03:20:10;;;;;;;49.00;19.13;;;;;;;;;;4990930;28;94255;-70
2022/01/01 03:22:37;;;;;;;50.10;20.05;;;;;;;;;;4992588;28;93927;-70
2022/01/01 03:25:03;;;;;;;43.70;18.77;;;;;;;;;;4993388;28;92555;-70
2022/01/01 03:27:30;;;;;;;55.28;22.30;;;;;;;;;;4983242;28;93366;-70
2022/01/01 03:29:56;;;;;;;52.97;19.17;;;;;;;;;;4985950;28;96043;-70
2022/01/01 03:32:22;;;;;;;52.90;22.48;;;;;;;;;;4984113;28;95651;-70
2022/01/01 03:34:51;;;;;;;52.67;21.60;;;;;;;;;;4981659;28;94390;-70
2022/01/01 03:37:17;;;;;;;51.45;19.83;;;;;;;;;;4991325;28;92524;-70
2022/01/01 03:39:43;;;;;;;54.53;21.23;;;;;;;;;;4989381;28;93883;-70
2022/01/01 03:42:10;;;;;;;65.22;20.65;;;;;;;;;;4973289;28;94041;-70
2022/01/01 03:44:36;;;;;;;54.97;23.08;;;;;;;;;;4972171;28;92672;-70
2022/01/01 03:47:09;;;;;;;55.58;23.20;;;;;;;;;;4992449;28;97671;-70
2022/01/01 03:49:36;;;;;;;56.55;23.45;;;;;;;;;;4990400;28;94479;-70
2022/01/01 03:52:03;;;;;;;55.78;26.13;;;;;;;;;;4976117;28;93046;-70
2022/01/01 03:54:29;;;;;;;58.13;23.45;;;;;;;;;;4970703;28;95817;-70
2022/01/01 03:56:56;;;;;;;52.83;23.08;;;;;;;;;;4992183;28;92449;-70
2022/01/01 03:59:25;;;;;;;67.13;22.85;;;;;;;;;;4992750;28;94351;-70
2022/01/01 04:01:51;;;;;;;60.92;25.90;;;;;;;;;;4973700;28;94576;-70
2022/01/01 04:04:22;;;;;;;64.43;25.25;;;;;;;;;;4980175;28;92455;-70
2022/01/01 04:06:49;;;;;;;66.53;24.45;;;;;;;;;;4974475;28;93884;-70
2022/01/01 04:09:15;;;;;;;60.38;26.90;;;;;;;;;;4972684;28;94231;-70
2022/01/01 04:11:42;;;;;;;66.90;35.90;;;;;;;;;;4993844;28;92106;-70
2022/01/01 04:14:12;;;;;;;94.43;54.45;;;;;;;;;;4995938;28;92835;-69
2022/01/01 04:16:39;;;;;;;85.55;45.03;;;;;;;;;;4992143;28;92614;-70
2022/01/01 04:19:05;;;;;;;88.22;46.75;;;;;;;;;;4990544;28;94971;-70
2022/01/01 04:21:31;;;;;;;80.65;37.35;;;;;;;;;;4991444;28;93362;-71
2022/01/01 04:23:58;;;;;;;72.25;31.83;;;;;;;;;;4992589;28;92504;-70
2022/01/01 04:26:25;;;;;;;59.35;27.85;;;;;;;;;;4974323;28;95008;-70
2022/01/01 04:28:51;;;;;;;62.40;29.02;;;;;;;;;;4972430;28;94413;-69
2022/01/01 04:31:18;;;;;;;79.00;27.98;;;;;;;;;;4988552;28;93001;-70
2022/01/01 04:33:44;;;;;;;63.85;28.45;;;;;;;;;;4994874;28;92886;-71
2022/01/01 04:36:11;;;;;;;61.92;28.63;;;;;;;;;;4977841;28;91710;-70
2022/01/01 04:38:42;;;;;;;68.90;28.00;;;;;;;;;;4983692;28;93412;-69
2022/01/01 04:41:10;;;;;;;72.30;28.83;;;;;;;;;;4992240;28;94256;-70
2022/01/01 04:43:36;;;;;;;64.10;29.67;;;;;;;;;;4978775;28;94922;-70
2022/01/01 04:46:03;;;;;;;73.47;31.80;;;;;;;;;;4986332;28;96509;-70
2022/01/01 04:48:29;;;;;;;67.22;29.48;;;;;;;;;;4991952;28;94041;-70
2022/01/01 04:50:55;;;;;;;70.97;31.48;;;;;;;;;;4983263;28;92562;-70
2022/01/01 04:53:22;;;;;;;75.25;30.60;;;;;;;;;;4971378;28;94069;-70
2022/01/01 04:55:49;;;;;;;63.70;29.90;;;;;;;;;;4981568;28;94210;-71
2022/01/01 04:58:15;;;;;;;67.65;31.05;;;;;;;;;;4972008;28;93959;-71
2022/01/01 05:00:42;;;;;;;70.75;31.10;;;;;;;;;;4983064;28;93420;-71
2022/01/01 05:03:08;;;;;;;64.93;29.20;;;;;;;;;;4991893;28;93070;-69
2022/01/01 05:05:35;;;;;;;65.13;28.38;;;;;;;;;;4985351;28;94054;-69
2022/01/01 05:08:01;;;;;;;64.65;28.77;;;;;;;;;;4972904;28;95388;-70
2022/01/01 05:10:27;;;;;;;69.65;29.10;;;;;;;;;;4980702;28;93550;-69
2022/01/01 05:12:54;;;;;;;65.22;29.02;;;;;;;;;;4995704;28;94004;-70
2022/01/01 05:15:20;;;;;;;63.10;27.60;;;;;;;;;;4994914;28;94172;-70
2022/01/01 05:17:47;;;;;;;71.15;29.85;;;;;;;;;;4977766;28;92605;-70
2022/01/01 05:20:13;;;;;;;73.35;28.92;;;;;;;;;;4978273;28;94129;-70
2022/01/01 05:22:39;;;;;;;62.00;26.90;;;;;;;;;;4996360;28;92464;-70
2022/01/01 05:25:06;;;;;;;60.38;28.20;;;;;;;;;;4995941;28;93279;-70
2022/01/01 05:27:35;;;;;;;62.58;28.65;;;;;;;;;;4995057;28;95945;-71
2022/01/01 05:30:02;;;;;;;55.70;25.85;;;;;;;;;;4994328;28;92825;-70
2022/01/01 05:32:28;;;;;;;60.92;27.88;;;;;;;;;;4993324;28;94854;-70
2022/01/01 05:34:54;;;;;;;55.28;26.77;;;;;;;;;;4983457;28;93523;-70
2022/01/01 05:37:21;;;;;;;57.55;26.88;;;;;;;;;;4975585;28;92827;-71
2022/01/01 05:39:47;;;;;;;62.42;27.67;;;;;;;;;;4978476;28;92916;-70
2022/01/01 05:42:14;;;;;;;56.13;26.58;;;;;;;;;;4974977;28;92686;-70
2022/01/01 05:44:41;;;;;;;57.13;26.33;;;;;;;;;;4985910;28;93380;-70
2022/01/01 05:47:07;;;;;;;64.40;26.33;;;;;;;;;;4976434;28;94406;-70
2022/01/01 05:49:33;;;;;;;54.83;26.05;;;;;;;;;;4988287;28;91915;-71
2022/01/01 05:52:00;;;;;;;57.70;26.33;;;;;;;;;;4994942;28;92432;-71
2022/01/01 05:54:26;;;;;;;52.88;25.30;;;;;;;;;;4982051;28;93540;-70
2022/01/01 05:56:53;;;;;;;52.75;25.80;;;;;;;;;;4992597;28;95371;-70
2022/01/01 05:59:19;;;;;;;54.58;23.15;;;;;;;;;;4993915;28;96560;-70
2022/01/01 06:01:46;;;;;;;60.83;23.70;;;;;;;;;;4997893;28;93337;-70
2022/01/01 06:04:12;;;;;;;50.25;22.08;;;;;;;;;;4991642;28;93128;-70
2022/01/01 06:06:44;;;;;;;59.40;23.67;;;;;;;;;;4986153;28;94203;-70
2022/01/01 06:09:11;;;;;;;53.22;22.13;;;;;;;;;;4982770;28;92452;-70
2022/01/01 06:11:37;;;;;;;43.10;22.13;;;;;;;;;;4993682;28;92453;-70
2022/01/01 06:14:03;;;;;;;51.28;22.23;;;;;;;;;;4994700;28;93521;-69
2022/01/01 06:16:30;;;;;;;54.17;22.02;;;;;;;;;;4987837;28;93014;-70
2022/01/01 06:18:56;;;;;;;45.25;21.77;;;;;;;;;;4974070;28;93155;-70
2022/01/01 06:21:24;;;;;;;48.95;22.67;;;;;;;;;;4979285;28;95487;-70
2022/01/01 06:23:50;;;;;;;50.60;22.42;;;;;;;;;;4987553;28;92455;-71
2022/01/01 06:26:16;;;;;;;47.53;20.63;;;;;;;;;;4978624;28;94101;-69
2022/01/01 06:28:43;;;;;;;45.88;21.05;;;;;;;;;;5002057;28;92501;-70
2022/01/01 06:31:09;;;;;;;50.85;21.83;;;;;;;;;;5010410;28;93274;-70
2022/01/01 06:33:35;;;;;;;46.63;20.38;;;;;;;;;;4994194;28;92453;-70
2022/01/01 06:36:02;;;;;;;47.20;20.52;;;;;;;;;;4992090;28;92453;-70
2022/01/01 06:38:28;;;;;;;43.90;21.40;;;;;;;;;;4974100;28;94054;-70
2022/01/01 06:40:55;;;;;;;51.92;22.17;;;;;;;;;;4974156;28;94109;-70
2022/01/01 06:43:23;;;;;;;48.40;20.52;;;;;;;;;;4991596;28;92782;-70
2022/01/01 06:45:49;;;;;;;35.92;18.27;;;;;;;;;;4999528;28;95853;-70
2022/01/01 06:48:16;;;;;;;44.08;18.83;;;;;;;;;;4993890;28;92460;-70
2022/01/01 06:50:42;;;;;;;43.08;18.63;;;;;;;;;;4994772;28;93944;-70
2022/01/01 06:53:11;;;;;;;49.83;20.60;;;;;;;;;;4974364;28;93297;-69
2022/01/01 06:55:38;;;;;;;33.58;19.38;;;;;;;;;;4973982;28;92495;-70
2022/01/01 06:58:04;;;;;;;41.92;19.55;;;;;;;;;;4987911;28;92926;-70
2022/01/01 07:00:31;;;;;;;38.15;18.45;;;;;;;;;;5006912;28;94598;-70
2022/01/01 07:02:57;;;;;;;42.33;19.25;;;;;;;;;;4977182;28;91734;-70
2022/01/01 07:05:24;;;;;;;34.88;18.08;;;;;;;;;;4981962;28;93626;-70
2022/01/01 07:07:50;;;;;;;36.58;18.02;;;;;;;;;;4993308;28;92730;-70
2022/01/01 07:10:17;;;;;;;38.45;17.73;;;;;;;;;;4993012;28;94853;-71
2022/01/01 07:12:43;;;;;;;39.63;17.92;;;;;;;;;;4983434;28;94235;-70
2022/01/01 07:15:10;;;;;;;34.88;17.92;;;;;;;;;;4975834;28;94491;-70
2022/01/01 07:17:36;;;;;;;35.03;18.48;;;;;;;;;;4990492;28;93135;-70
2022/01/01 07:20:04;;;;;;;33.45;17.13;;;;;;;;;;4991417;28;94687;-70
2022/01/01 07:22:30;;;;;;;40.45;17.90;;;;;;;;;;4991892;28;92440;-69
2022/01/01 07:25:02;;;;;;;30.38;15.88;;;;;;;;;;4980747;28;93423;-70
2022/01/01 07:27:28;;;;;;;30.23;15.23;;;;;;;;;;4975855;28;92719;-70
2022/01/01 07:29:55;;;;;;;28.67;14.80;;;;;;;;;;4987372;28;92609;-70
2022/01/01 07:32:21;;;;;;;27.20;14.05;;;;;;;;;;4992232;28;94159;-70
2022/01/01 07:34:48;;;;;;;31.60;13.95;;;;;;;;;;4992461;28;94865;-70
2022/01/01 07:37:14;;;;;;;21.33;12.50;;;;;;;;;;4992305;28;95527;-70
2022/01/01 07:39:41;;;;;;;25.52;12.85;;;;;;;;;;4992631;28;94088;-69
2022/01/01 07:42:07;;;;;;;48.80;14.13;;;;;;;;;;4993207;28;92747;-70
2022/01/01 07:44:33;;;;;;;25.52;12.10;;;;;;;;;;4992907;28;93728;-70
2022/01/01 07:47:01;;;;;;;24.67;11.45;;;;;;;;;;4994984;28;93303;-70
2022/01/01 07:49:27;;;;;;;25.95;11.85;;;;;;;;;;4995150;28;92594;-70
2022/01/01 07:51:54;;;;;;;21.58;10.85;;;;;;;;;;4993516;28;93342;-70
2022/01/01 07:54:20;;;;;;;25.17;10.57;;;;;;;;;;4992621;28;92455;-70
2022/01/01 07:56:46;;;;;;;23.98;10.68;;;;;;;;;;4983593;28;94008;-70
2022/01/01 07:59:14;;;;;;;20.23;9.80;;;;;;;;;;4979703;28;96596;-70
2022/01/01 08:01:43;;;;;;;26.73;9.77;;;;;;;;;;5010087;28;92487;-70
2022/01/01 08:04:10;;;;;;;16.40;8.38;;;;;;;;;;5002100;28;94023;-69
2022/01/01 08:06:36;;;;;;;22.45;9.00;;;;;;;;;;4983675;28;94165;-69
2022/01/01 08:09:03;;;;;;;19.17;9.30;;;;;;;;;;4979490;28;92489;-70
2022/01/01 08:11:29;;;;;;;16.35;8.77;;;;;;;;;;4994826;28;93019;-70
2022/01/01 08:13:56;;;;;;;24.80;8.95;;;;;;;;;;4989514;28;92519;-70
2022/01/01 08:16:22;;;;;;;16.33;8.38;;;;;;;;;;5002838;28;93051;-70
2022/01/01 08:18:49;;;;;;;17.65;8.95;;;;;;;;;;5006289;28;93244;-70
2022/01/01 08:21:15;;;;;;;20.23;7.95;;;;;;;;;;4994719;28;92442;-69
2022/01/01 08:23:41;;;;;;;14.73;8.00;;;;;;;;;;4990627;28;94988;-70
2022/01/01 08:26:10;;;;;;;15.82;7.70;;;;;;;;;;4993231;28;93924;-70
2022/01/01 08:28:37;;;;;;;13.60;7.00;;;;;;;;;;4992778;28;92555;-71
2022/01/01 08:31:04;;;;;;;16.25;7.25;;;;;;;;;;5000704;28;94255;-70
2022/01/01 08:33:31;;;;;;;15.50;7.88;;;;;;;;;;4990643;28;92479;-70
2022/01/01 08:35:57;;;;;;;20.55;7.50;;;;;;;;;;4973004;28;93357;-70
2022/01/01 08:38:23;;;;;;;14.98;8.23;;;;;;;;;;4988735;28;93322;-71
2022/01/01 08:40:50;;;;;;;13.75;6.68;;;;;;;;;;4993804;28;91744;-71
2022/01/01 08:43:16;;;;;;;14.20;6.43;;;;;;;;;;4991546;28;92492;-72
2022/01/01 08:45:42;;;;;;;17.05;7.28;;;;;;;;;;4989340;28;94193;-71
2022/01/01 08:48:09;;;;;;;15.13;6.88;;;;;;;;;;4979181;28;94926;-69
2022/01/01 08:50:35;;;;;;;16.27;7.25;;;;;;;;;;4989842;28;96287;-70
2022/01/01 08:53:02;;;;;;;17.90;6.82;;;;;;;;;;4982991;28;94520;-70
2022/01/01 08:55:29;;;;;;;15.55;6.28;;;;;;;;;;4986249;28;94280;-69
2022/01/01 08:57:55;;;;;;;11.55;5.85;;;;;;;;;;4995285;28;93354;-70
2022/01/01 09:00:41;;;;;;;18.15;6.25;;;;;;;;;;4987630;28;92496;-69
2022/01/01 09:03:08;;;;;;;12.32;6.10;;;;;;;;;;4987259;28;94391;-70
2022/01/01 09:05:40;;;;;;;17.08;5.88;;;;;;;;;;4989692;28;93282;-69
2022/01/01 09:08:26;;;;;;;13.52;6.40;;;;;;;;;;4988460;28;92498;-70
2022/01/01 09:10:53;;;;;;;17.35;6.53;;;;;;;;;;4992841;28;94031;-69
2022/01/01 09:13:19;;;;;;;14.15;6.15;;;;;;;;;;4983751;28;95537;-70
2022/01/01 09:15:46;;;;;;;25.42;6.75;;;;;;;;;;4995582;28;92499;-72
2022/01/01 09:18:12;;;;;;;18.35;6.20;;;;;;;;;;4989394;28;93551;-70
2022/01/01 09:20:38;;;;;;;14.85;6.20;;;;;;;;;;4987271;28;92786;-69
2022/01/01 09:23:05;;;;;;;13.90;5.97;;;;;;;;;;4993617;28;93358;-70
2022/01/01 09:25:31;;;;;;;12.65;6.38;;;;;;;;;;4995658;28;93570;-70
2022/01/01 09:27:57;;;;;;;14.73;6.28;;;;;;;;;;4984870;28;92666;-69
2022/01/01 09:30:24;;;;;;;19.23;6.05;;;;;;;;;;4988297;28;93873;-70
2022/01/01 09:32:51;;;;;;;13.32;5.85;;;;;;;;;;4988509;28;93430;-70
2022/01/01 09:35:18;;;;;;;11.65;6.38;;;;;;;;;;4992558;28;92752;-70
2022/01/01 09:37:44;;;;;;;19.17;6.78;;;;;;;;;;4987629;28;95839;-69
2022/01/01 09:40:11;;;;;;;12.70;6.13;;;;;;;;;;4990655;28;94337;-70
2022/01/01 09:42:39;;;;;;;17.42;6.75;;;;;;;;;;4982773;28;92985;-70
2022/01/01 09:45:06;;;;;;;13.20;6.60;;;;;;;;;;4990221;28;94198;-70
2022/01/01 09:47:32;;;;;;;16.52;6.35;;;;;;;;;;4979265;28;94818;-70
2022/01/01 09:49:59;;;;;;;12.38;7.10;;;;;;;;;;4976779;28;94250;-70
2022/01/01 09:52:25;;;;;;;14.05;6.82;;;;;;;;;;4982787;28;94065;-70
2022/01/01 09:54:51;;;;;;;12.40;6.78;;;;;;;;;;4990790;28;91959;-70
2022/01/01 09:57:18;;;;;;;13.73;6.53;;;;;;;;;;4974589;28;93180;-70
2022/01/01 09:59:44;;;;;;;19.13;7.53;;;;;;;;;;4987364;28;94380;-70
2022/01/01 10:02:10;;;;;;;14.48;6.93;;;;;;;;;;4993442;28;94797;-70
2022/01/01 10:04:40;;;;;;;14.00;7.43;;;;;;;;;;4993087;28;94207;-70
2022/01/01 10:07:06;;;;;;;11.52;7.25;;;;;;;;;;4989297;28;92893;-70
2022/01/01 10:09:33;;;;;;;16.33;7.32;;;;;;;;;;4974415;28;94027;-70
2022/01/01 10:12:00;;;;;;;10.95;6.85;;;;;;;;;;4991057;28;94023;-70
2022/01/01 10:14:34;;;;;;;13.73;6.63;;;;;;;;;;4994678;28;92582;-71
2022/01/01 10:17:06;;;;;;;11.70;6.55;;;;;;;;;;4994371;28;93224;-71
2022/01/01 10:19:33;;;;;;;14.35;6.75;;;;;;;;;;4986602;28;92748;-70
2022/01/01 10:22:02;;;;;;;14.25;7.22;;;;;;;;;;4983124;28;93523;-70
2022/01/01 10:27:42;;;;;;;17.88;7.50;;;;;;;;;;4991770;28;94207;-71
2022/01/01 10:29:59;;;;;;;11.82;7.47;;;;;;;;;;4990425;28;95635;-71
2022/01/01 10:32:26;;;;;;;16.92;7.80;;;;;;;;;;4983236;28;94271;-70
2022/01/01 10:34:52;;;;;;;20.13;8.48;;;;;;;;;;4976700;28;92487;-71
2022/01/01 10:37:34;;;;;;;13.93;7.28;;;;;;;;;;4976500;28;94263;-70
2022/01/01 10:40:01;;;;;;;11.73;7.88;;;;;;;;;;4974701;28;93384;-70
2022/01/01 10:42:28;;;;;;;15.00;7.70;;;;;;;;;;4981243;28;92470;-70
2022/01/01 10:44:54;;;;;;;14.90;6.78;;;;;;;;;;4989224;28;93617;-70
2022/01/01 10:47:28;;;;;;;18.55;8.73;;;;;;;;;;4984839;28;92784;-70
2022/01/01 10:50:14;;;;;;;13.50;8.10;;;;;;;;;;4974984;28;94149;-70
2022/01/01 10:52:47;;;;;;;16.30;8.32;;;;;;;;;;4986542;28;95960;-71
2022/01/01 10:55:14;;;;;;;17.55;8.23;;;;;;;;;;4991786;28;93486;-70
2022/01/01 10:57:42;;;;;;;15.23;8.05;;;;;;;;;;4986351;28;94127;-71
2022/01/01 11:00:08;;;;;;;16.55;8.57;;;;;;;;;;4992428;28;94083;-70
2022/01/01 11:02:35;;;;;;;13.85;7.95;;;;;;;;;;4991873;28;92572;-71
2022/01/01 11:05:03;;;;;;;19.65;8.35;;;;;;;;;;4997929;28;93119;-70
2022/01/01 11:07:30;;;;;;;11.70;8.15;;;;;;;;;;4992535;28;92916;-71
2022/01/01 11:09:57;;;;;;;13.65;8.35;;;;;;;;;;4994703;28;94580;-71
2022/01/01 11:12:28;;;;;;;14.38;8.35;;;;;;;;;;4984670;28;94143;-71
2022/01/01 11:14:55;;;;;;;13.18;7.93;;;;;;;;;;4988627;28;92544;-71
2022/01/01 11:17:22;;;;;;;16.17;7.93;;;;;;;;;;4980034;28;96767;-70
2022/01/01 11:19:49;;;;;;;12.07;7.85;;;;;;;;;;4983501;28;94545;-71
2022/01/01 11:22:16;;;;;;;18.65;8.20;;;;;;;;;;4988761;28;92524;-72
2022/01/01 11:24:42;;;;;;;14.95;8.93;;;;;;;;;;4984908;28;94287;-71
2022/01/01 11:27:09;;;;;;;13.20;7.97;;;;;;;;;;4988822;28;94334;-71
2022/01/01 11:29:35;;;;;;;15.45;8.63;;;;;;;;;;4983957;28;93993;-71
2022/01/01 11:32:04;;;;;;;15.20;7.50;;;;;;;;;;4994187;28;93010;-71
2022/01/01 11:34:31;;;;;;;10.70;6.80;;;;;;;;;;4974497;28;91684;-70
2022/01/01 11:36:58;;;;;;;12.73;8.05;;;;;;;;;;4981861;28;93149;-71
2022/01/01 11:39:25;;;;;;;17.23;8.52;;;;;;;;;;4978777;28;94246;-71
2022/01/01 11:41:52;;;;;;;13.57;8.30;;;;;;;;;;4983749;28;95534;-71
2022/01/01 11:44:44;;;;;;;12.20;7.93;;;;;;;;;;4993639;28;96380;-71
2022/01/01 11:47:16;;;;;;;11.70;7.38;;;;;;;;;;4986571;28;93658;-71
2022/01/01 11:49:42;;;;;;;11.48;8.10;;;;;;;;;;4996287;28;92416;-71
2022/01/01 11:52:15;;;;;;;;;;;;;;;;;;4993366;28;94114;-69
2022/01/01 11:54:42;;;;;;;11.38;7.65;;;;;;;;;;4983940;28;118219;-71
2022/01/01 11:57:24;;;;;;;17.33;7.70;;;;;;;;;;4978208;28;94249;-70
2022/01/01 11:59:51;;;;;;;11.32;7.55;;;;;;;;;;4991830;28;93701;-70
2022/01/01 12:02:18;;;;;;;12.82;7.75;;;;;;;;;;4993828;28;92766;-70
2022/01/01 12:04:45;;;;;;;13.30;8.77;;;;;;;;;;4994396;28;93106;-71
2022/01/01 12:07:13;;;;;;;11.25;7.05;;;;;;;;;;4990786;28;95694;-71
2022/01/01 12:09:57;;;;;;;9.07;6.78;;;;;;;;;;4992891;28;92474;-70
2022/01/01 12:12:42;;;;;;;15.57;8.52;;;;;;;;;;4996028;28;93315;-71
2022/01/01 12:15:29;;;;;;;10.45;8.05;;;;;;;;;;4993328;28;92471;-71
2022/01/01 12:17:57;;;;;;;11.02;7.93;;;;;;;;;;4975140;28;94112;-71
2022/01/01 12:20:29;;;;;;;12.05;8.57;;;;;;;;;;4993037;28;94560;-71
2022/01/01 12:22:56;;;;;;;12.68;7.93;;;;;;;;;;4992791;28;92760;-71
2022/01/01 12:25:28;;;;;;;10.70;7.90;;;;;;;;;;4993672;28;91651;-71
2022/01/01 12:28:00;;;;;;;14.27;8.48;;;;;;;;;;4986068;28;94352;-71
2022/01/01 12:30:32;;;;;;;12.27;8.27;;;;;;;;;;4993675;28;93967;-71
2022/01/01 12:32:59;;;;;;;10.57;7.90;;;;;;;;;;4991492;28;95414;-71
2022/01/01 12:35:44;;;;;;;12.45;7.80;;;;;;;;;;4995681;28;94078;-71
2022/01/01 12:38:12;;;;;;;15.82;8.00;;;;;;;;;;4992627;28;93179;-71
2022/01/01 12:40:40;;;;;;;10.77;7.53;;;;;;;;;;4993289;28;94517;-71
2022/01/01 12:43:11;;;;;;;11.15;8.07;;;;;;;;;;4995033;28;92478;-70
2022/01/01 12:45:38;;;;;;;9.65;7.82;;;;;;;;;;5007769;28;93126;-71
2022/01/01 12:48:05;;;;;;;12.98;7.57;;;;;;;;;;4990907;28;94276;-70
2022/01/01 12:50:32;;;;;;;12.95;7.47;;;;;;;;;;4981122;28;91983;-70
2022/01/01 12:53:00;;;;;;;16.48;7.43;;;;;;;;;;4972528;28;93162;-69
2022/01/01 12:55:26;;;;;;;11.10;7.35;;;;;;;;;;4975889;28;93738;-70
2022/01/01 12:58:13;;;;;;;9.35;7.03;;;;;;;;;;4976628;28;95218;-70
2022/01/01 13:00:40;;;;;;;11.38;7.78;;;;;;;;;;4991978;28;93265;-70
2022/01/01 13:03:07;;;;;;;13.43;7.07;;;;;;;;;;4992314;28;94136;-70
2022/01/01 13:05:33;;;;;;;10.85;7.07;;;;;;;;;;4978587;28;93484;-70
2022/01/01 13:08:03;;;;;;;11.90;7.13;;;;;;;;;;4974747;28;93457;-69
2022/01/01 13:10:30;;;;;;;12.57;7.00;;;;;;;;;;4972971;28;93307;-69
2022/01/01 13:12:57;;;;;;;8.90;6.38;;;;;;;;;;4988432;28;93974;-69
2022/01/01 13:15:23;;;;;;;9.15;6.32;;;;;;;;;;4992118;28;92726;-70
2022/01/01 13:17:50;;;;;;;11.10;6.63;;;;;;;;;;4995254;28;92571;-69
2022/01/01 13:20:16;;;;;;;8.00;5.72;;;;;;;;;;4991371;28;94493;-70
2022/01/01 13:22:43;;;;;;;6.18;5.57;;;;;;;;;;4990612;28;95136;-70
2022/01/01 13:25:09;;;;;;;7.32;5.22;;;;;;;;;;4992278;28;96315;-69
2022/01/01 13:27:35;;;;;;;9.48;5.68;;;;;;;;;;4992124;28;93440;-69
2022/01/01 13:30:03;;;;;;;8.50;5.22;;;;;;;;;;4993086;28;92455;-69
2022/01/01 13:32:29;;;;;;;11.07;5.63;;;;;;;;;;4994414;28;93318;-69
2022/01/01 13:34:58;;;;;;;6.88;5.00;;;;;;;;;;4993857;28;94233;-70
2022/01/01 13:37:25;;;;;;;7.18;4.93;;;;;;;;;;4996554;28;92556;-69
2022/01/01 13:39:58;;;;;;;7.70;5.22;;;;;;;;;;4990719;28;94196;-70
2022/01/01 13:42:24;;;;;;;8.55;5.35;;;;;;;;;;4975189;28;92465;-70
2022/01/01 13:44:50;;;;;;;9.13;5.15;;;;;;;;;;4976219;28;93140;-69
2022/01/01 13:47:19;;;;;;;8.25;4.88;;;;;;;;;;4978156;28;96861;-69
2022/01/01 13:49:58;;;;;;;6.22;5.25;;;;;;;;;;4992807;28;92503;-69
2022/01/01 13:52:27;;;;;;;7.47;4.78;;;;;;;;;;4992932;28;93994;-69
2022/01/01 13:54:59;;;;;;;7.43;5.15;;;;;;;;;;4983882;28;94025;-69
2022/01/01 13:57:28;;;;;;;4.50;4.10;;;;;;;;;;4975941;28;92472;-69
2022/01/01 13:59:55;;;;;;;8.30;4.82;;;;;;;;;;4975843;28;93142;-69
2022/01/01 14:02:22;;;;;;;10.32;5.10;;;;;;;;;;4979810;28;93394;-69
2022/01/01 14:04:54;;;;;;;12.80;5.30;;;;;;;;;;4976073;28;93710;-69
2022/01/01 14:07:21;;;;;;;8.80;6.28;;;;;;;;;;4974905;28;92454;-70
2022/01/01 14:09:59;;;;;;;5.18;4.55;;;;;;;;;;4974239;28;92514;-69
2022/01/01 14:12:29;;;;;;;10.98;5.72;;;;;;;;;;4973799;28;94815;-69
2022/01/01 14:15:10;;;;;;;10.57;5.63;;;;;;;;;;4975054;28;94234;-69
2022/01/01 14:17:51;;;;;;;11.10;5.97;;;;;;;;;;4974056;28;92766;-69
2022/01/01 14:20:18;;;;;;;10.05;6.03;;;;;;;;;;4975068;28;93964;-69
2022/01/01 14:22:45;;;;;;;11.68;6.88;;;;;;;;;;4983839;28;94123;-70
2022/01/01 14:25:12;;;;;;;15.60;6.65;;;;;;;;;;4997260;28;92704;-69
2022/01/01 14:27:38;;;;;;;7.88;6.10;;;;;;;;;;4975264;28;93805;-70
2022/01/01 14:30:07;;;;;;;14.05;6.32;;;;;;;;;;4994899;28;91754;-70